createdAt,value
2022-11-30T00:00:04.222Z,5.44
2022-11-30T00:01:04.150Z,5.44
2022-11-30T00:02:04.252Z,5.44
2022-11-30T00:03:04.166Z,5.44
2022-11-30T00:04:04.070Z,5.44
2022-11-30T00:05:04.316Z,5.44
2022-11-30T00:06:03.907Z,5.44
2022-11-30T00:07:03.821Z,5.44
2022-11-30T00:08:03.740Z,5.44
2022-11-30T00:09:03.661Z,5.44
2022-11-30T00:10:03.502Z,5.38
2022-11-30T00:11:03.416Z,5.38
2022-11-30T00:12:04.378Z,5.38
2022-11-30T00:13:04.385Z,5.38
2022-11-30T00:14:04.388Z,5.38
2022-11-30T00:15:04.218Z,5.38
2022-11-30T00:16:04.149Z,5.31
2022-11-30T00:17:04.228Z,5.31
2022-11-30T00:18:04.159Z,5.31
2022-11-30T00:19:03.991Z,5.31
2022-11-30T00:20:04.066Z,5.31
2022-11-30T00:21:04.074Z,5.31
2022-11-30T00:22:04.073Z,5.31
2022-11-30T00:23:03.916Z,5.31
2022-11-30T00:24:03.741Z,5.31
2022-11-30T00:25:03.749Z,5.31
2022-11-30T00:26:03.747Z,5.25
2022-11-30T00:27:03.663Z,5.25
2022-11-30T00:28:03.581Z,5.31
2022-11-30T00:29:03.590Z,5.25
2022-11-30T00:30:03.497Z,5.25
2022-11-30T00:31:03.512Z,5.25
2022-11-30T00:32:03.506Z,5.25
2022-11-30T00:33:04.378Z,5.25
2022-11-30T00:34:04.391Z,5.25
2022-11-30T00:35:04.306Z,5.19
2022-11-30T00:36:04.136Z,5.19
2022-11-30T00:37:04.150Z,5.19
2022-11-30T00:38:04.141Z,5.19
2022-11-30T00:39:04.218Z,5.19
2022-11-30T00:40:04.060Z,5.19
2022-11-30T00:41:04.142Z,5.19
2022-11-30T00:42:04.062Z,5.19
2022-11-30T00:43:04.075Z,5.19
2022-11-30T00:44:04.227Z,5.19
2022-11-30T00:45:04.309Z,5.19
2022-11-30T00:46:04.271Z,5.19
2022-11-30T00:47:04.146Z,5.19
2022-11-30T00:48:04.055Z,5.12
2022-11-30T00:49:04.154Z,5.12
2022-11-30T00:50:04.071Z,5.12
2022-11-30T00:51:03.895Z,5.12
2022-11-30T00:52:03.904Z,5.12
2022-11-30T00:53:03.916Z,5.12
2022-11-30T00:54:03.824Z,5.12
2022-11-30T00:55:04.320Z,5.12
2022-11-30T00:56:03.746Z,5.12
2022-11-30T00:57:03.662Z,5.12
2022-11-30T00:58:03.585Z,5.12
2022-11-30T00:59:03.997Z,5.12
2022-11-30T01:00:03.914Z,5.12
2022-11-30T01:01:03.853Z,5.06
2022-11-30T01:02:03.859Z,5.06
2022-11-30T01:03:03.745Z,5.06
2022-11-30T01:04:03.672Z,5.06
2022-11-30T01:05:03.657Z,5.06
2022-11-30T01:06:03.587Z,5.06
2022-11-30T01:07:03.420Z,5.06
2022-11-30T01:08:04.389Z,5.06
2022-11-30T01:09:04.300Z,5.06
2022-11-30T01:10:04.406Z,5.06
2022-11-30T01:11:04.443Z,5.06
2022-11-30T01:12:04.373Z,5.06
2022-11-30T01:13:04.481Z,5.06
2022-11-30T01:14:04.305Z,5.06
2022-11-30T01:15:04.213Z,5.06
2022-11-30T01:16:04.358Z,5.06
2022-11-30T01:17:04.228Z,5.06
2022-11-30T01:18:04.307Z,5.06
2022-11-30T01:19:04.244Z,5.06
2022-11-30T01:20:04.226Z,5.06
2022-11-30T01:21:04.142Z,5.06
2022-11-30T01:22:04.141Z,5.06
2022-11-30T01:23:03.985Z,5.00
2022-11-30T01:24:03.986Z,5.00
2022-11-30T01:25:03.909Z,5.00
2022-11-30T01:26:03.833Z,5.00
2022-11-30T01:27:03.829Z,5.00
2022-11-30T01:28:03.661Z,5.00
2022-11-30T01:29:03.664Z,5.00
2022-11-30T01:30:03.599Z,5.00
2022-11-30T01:31:03.677Z,5.00
2022-11-30T01:32:03.519Z,5.00
2022-11-30T01:33:03.493Z,5.00
2022-11-30T01:34:04.381Z,5.00
2022-11-30T01:35:04.363Z,4.94
2022-11-30T01:36:04.382Z,5.00
2022-11-30T01:37:04.388Z,4.94
2022-11-30T01:38:04.220Z,5.00
2022-11-30T01:39:04.221Z,5.00
2022-11-30T01:40:04.223Z,5.00
2022-11-30T01:41:04.225Z,5.00
2022-11-30T01:42:04.190Z,5.00
2022-11-30T01:43:04.069Z,4.94
2022-11-30T01:44:04.232Z,5.00
2022-11-30T01:45:04.138Z,5.00
2022-11-30T01:46:04.058Z,5.00
2022-11-30T01:47:03.975Z,4.94
2022-11-30T01:48:03.902Z,4.94
2022-11-30T01:49:04.013Z,4.94
2022-11-30T01:50:03.897Z,4.94
2022-11-30T01:51:03.825Z,4.94
2022-11-30T01:52:03.663Z,4.94
2022-11-30T01:53:03.748Z,4.94
2022-11-30T01:54:03.583Z,4.94
2022-11-30T01:55:03.580Z,4.94
2022-11-30T01:56:03.424Z,4.94
2022-11-30T01:57:03.431Z,4.94
2022-11-30T01:58:04.472Z,4.94
2022-11-30T01:59:04.387Z,4.94
2022-11-30T02:00:04.317Z,4.94
2022-11-30T02:01:04.258Z,4.94
2022-11-30T02:02:04.148Z,4.94
2022-11-30T02:03:04.228Z,4.94
2022-11-30T02:04:04.144Z,4.94
2022-11-30T02:05:04.061Z,4.94
2022-11-30T02:06:03.979Z,4.94
2022-11-30T02:07:04.067Z,4.94
2022-11-30T02:08:04.011Z,4.88
2022-11-30T02:09:03.817Z,4.94
2022-11-30T02:10:03.830Z,4.94
2022-11-30T02:11:03.672Z,4.94
2022-11-30T02:12:03.671Z,4.94
2022-11-30T02:13:03.498Z,4.94
2022-11-30T02:14:03.427Z,4.94
2022-11-30T02:15:04.300Z,4.94
2022-11-30T02:16:04.486Z,4.94
2022-11-30T02:17:04.322Z,4.94
2022-11-30T02:18:04.399Z,4.88
2022-11-30T02:19:04.225Z,4.88
2022-11-30T02:20:04.312Z,4.88
2022-11-30T02:21:04.145Z,4.88
2022-11-30T02:22:04.233Z,4.88
2022-11-30T02:23:04.298Z,4.88
2022-11-30T02:24:04.168Z,4.88
2022-11-30T02:25:04.074Z,4.88
2022-11-30T02:26:04.150Z,4.88
2022-11-30T02:27:03.978Z,4.88
2022-11-30T02:28:03.970Z,4.88
2022-11-30T02:29:03.990Z,4.88
2022-11-30T02:30:03.918Z,4.88
2022-11-30T02:31:03.839Z,4.88
2022-11-30T02:32:03.753Z,4.88
2022-11-30T02:33:03.663Z,4.88
2022-11-30T02:34:03.579Z,4.88
2022-11-30T02:35:03.416Z,4.88
2022-11-30T02:36:04.468Z,4.81
2022-11-30T02:37:04.303Z,4.81
2022-11-30T02:38:04.220Z,4.81
2022-11-30T02:39:04.137Z,4.81
2022-11-30T02:40:04.059Z,4.81
2022-11-30T02:41:04.067Z,4.81
2022-11-30T02:42:03.988Z,4.81
2022-11-30T02:43:03.910Z,4.81
2022-11-30T02:44:04.149Z,4.81
2022-11-30T02:45:03.910Z,4.81
2022-11-30T02:46:03.939Z,4.81
2022-11-30T02:47:03.829Z,4.81
2022-11-30T02:48:03.821Z,4.81
2022-11-30T02:49:03.915Z,4.81
2022-11-30T02:50:03.754Z,4.81
2022-11-30T02:51:03.658Z,4.81
2022-11-30T02:52:03.666Z,4.81
2022-11-30T02:53:03.580Z,4.81
2022-11-30T02:54:03.579Z,4.75
2022-11-30T02:55:03.530Z,4.81
2022-11-30T02:56:04.380Z,4.75
2022-11-30T02:57:04.481Z,4.75
2022-11-30T02:58:04.293Z,4.75
2022-11-30T02:59:04.319Z,4.81
2022-11-30T03:00:04.251Z,4.75
2022-11-30T03:01:04.141Z,4.75
2022-11-30T03:02:04.380Z,4.75
2022-11-30T03:03:03.869Z,4.75
2022-11-30T03:04:03.746Z,4.75
2022-11-30T03:05:03.655Z,4.75
2022-11-30T03:06:03.578Z,4.75
2022-11-30T03:07:03.430Z,4.75
2022-11-30T03:08:04.384Z,4.69
2022-11-30T03:09:03.593Z,4.69
2022-11-30T03:10:03.422Z,4.75
2022-11-30T03:11:04.383Z,4.75
2022-11-30T03:12:04.477Z,4.75
2022-11-30T03:13:04.374Z,4.69
2022-11-30T03:14:03.554Z,4.75
2022-11-30T03:15:04.469Z,4.75
2022-11-30T03:16:04.510Z,4.69
2022-11-30T03:17:04.304Z,4.69
2022-11-30T03:18:04.302Z,4.69
2022-11-30T03:19:04.226Z,4.69
2022-11-30T03:20:04.140Z,4.69
2022-11-30T03:21:04.143Z,4.69
2022-11-30T03:22:04.062Z,4.69
2022-11-30T03:23:03.978Z,4.69
2022-11-30T03:24:03.906Z,4.69
2022-11-30T03:25:03.822Z,4.69
2022-11-30T03:26:03.921Z,4.69
2022-11-30T03:27:03.826Z,4.69
2022-11-30T03:28:03.661Z,4.69
2022-11-30T03:29:03.587Z,4.69
2022-11-30T03:30:03.476Z,4.69
2022-11-30T03:31:04.509Z,4.69
2022-11-30T03:32:04.378Z,4.69
2022-11-30T03:33:04.218Z,4.69
2022-11-30T03:34:04.223Z,4.69
2022-11-30T03:35:04.144Z,4.69
2022-11-30T03:36:04.068Z,4.69
2022-11-30T03:37:03.976Z,4.62
2022-11-30T03:38:03.987Z,4.69
2022-11-30T03:39:03.984Z,4.69
2022-11-30T03:40:04.225Z,4.62
2022-11-30T03:41:04.138Z,4.62
2022-11-30T03:42:03.986Z,4.62
2022-11-30T03:43:03.905Z,4.62
2022-11-30T03:44:03.984Z,4.62
2022-11-30T03:45:03.927Z,4.62
2022-11-30T03:46:03.808Z,4.62
2022-11-30T03:47:03.743Z,4.62
2022-11-30T03:48:03.663Z,4.62
2022-11-30T03:49:03.590Z,4.62
2022-11-30T03:50:03.512Z,4.62
2022-11-30T03:51:03.582Z,4.62
2022-11-30T03:52:03.582Z,4.62
2022-11-30T03:53:04.461Z,4.62
2022-11-30T03:54:03.502Z,4.62
2022-11-30T03:55:03.423Z,4.62
2022-11-30T03:56:04.392Z,4.56
2022-11-30T03:57:04.301Z,4.56
2022-11-30T03:58:04.227Z,4.56
2022-11-30T03:59:04.218Z,4.56
2022-11-30T04:00:04.229Z,4.56
2022-11-30T04:01:04.156Z,4.56
2022-11-30T04:02:04.123Z,4.56
2022-11-30T04:03:04.012Z,4.56
2022-11-30T04:04:03.818Z,4.56
2022-11-30T04:05:03.824Z,4.56
2022-11-30T04:06:03.737Z,4.56
2022-11-30T04:07:03.739Z,4.56
2022-11-30T04:08:03.669Z,4.56
2022-11-30T04:09:03.676Z,4.56
2022-11-30T04:10:08.204Z,4.56
2022-11-30T04:11:03.505Z,4.56
2022-11-30T04:12:03.507Z,4.50
2022-11-30T04:13:04.384Z,4.56
2022-11-30T04:14:04.307Z,4.56
2022-11-30T04:15:04.383Z,4.56
2022-11-30T04:16:04.439Z,4.50
2022-11-30T04:17:04.391Z,4.50
2022-11-30T04:18:04.215Z,4.50
2022-11-30T04:19:04.225Z,4.50
2022-11-30T04:20:04.227Z,4.50
2022-11-30T04:21:04.146Z,4.50
2022-11-30T04:22:04.061Z,4.50
2022-11-30T04:23:03.974Z,4.50
2022-11-30T04:24:03.981Z,4.50
2022-11-30T04:25:03.984Z,4.50
2022-11-30T04:26:04.063Z,4.50
2022-11-30T04:27:03.905Z,4.50
2022-11-30T04:28:03.911Z,4.50
2022-11-30T04:29:04.697Z,4.50
2022-11-30T04:30:03.827Z,4.50
2022-11-30T04:31:03.811Z,4.50
2022-11-30T04:32:03.659Z,4.50
2022-11-30T04:33:03.506Z,4.50
2022-11-30T04:34:03.584Z,4.50
2022-11-30T04:35:03.512Z,4.50
2022-11-30T04:36:04.415Z,4.50
2022-11-30T04:37:03.432Z,4.50
2022-11-30T04:38:03.739Z,4.50
2022-11-30T04:39:03.713Z,4.50
2022-11-30T04:40:03.579Z,4.44
2022-11-30T04:41:03.579Z,4.50
2022-11-30T04:42:03.502Z,4.50
2022-11-30T04:43:04.390Z,4.44
2022-11-30T04:44:04.393Z,4.44
2022-11-30T04:45:04.221Z,4.44
2022-11-30T04:46:04.305Z,4.44
2022-11-30T04:47:04.143Z,4.44
2022-11-30T04:48:04.067Z,4.44
2022-11-30T04:49:03.982Z,4.44
2022-11-30T04:50:03.906Z,4.44
2022-11-30T04:51:03.905Z,4.44
2022-11-30T04:52:03.824Z,4.44
2022-11-30T04:53:03.826Z,4.44
2022-11-30T04:54:03.657Z,4.44
2022-11-30T04:55:03.585Z,4.44
2022-11-30T04:56:03.676Z,4.44
2022-11-30T04:57:03.588Z,4.44
2022-11-30T04:58:03.428Z,4.44
2022-11-30T04:59:04.380Z,4.44
2022-11-30T05:00:04.387Z,4.44
2022-11-30T05:01:04.381Z,4.44
2022-11-30T05:02:04.343Z,4.44
2022-11-30T05:03:04.302Z,4.44
2022-11-30T05:04:04.294Z,4.44
2022-11-30T05:05:04.144Z,4.38
2022-11-30T05:06:04.141Z,4.38
2022-11-30T05:07:04.068Z,4.38
2022-11-30T05:08:04.141Z,4.38
2022-11-30T05:09:03.904Z,4.38
2022-11-30T05:10:03.906Z,4.38
2022-11-30T05:11:03.827Z,4.38
2022-11-30T05:12:03.744Z,4.38
2022-11-30T05:13:03.744Z,4.38
2022-11-30T05:14:03.581Z,4.38
2022-11-30T05:15:03.580Z,4.38
2022-11-30T05:16:03.649Z,4.38
2022-11-30T05:17:03.507Z,4.38
2022-11-30T05:18:04.465Z,4.38
2022-11-30T05:19:04.384Z,4.38
2022-11-30T05:20:04.217Z,4.38
2022-11-30T05:21:04.219Z,4.38
2022-11-30T05:22:04.311Z,4.38
2022-11-30T05:23:04.216Z,4.38
2022-11-30T05:24:04.069Z,4.31
2022-11-30T05:25:04.178Z,4.31
2022-11-30T05:26:04.150Z,4.31
2022-11-30T05:27:07.752Z,4.31
2022-11-30T05:28:03.911Z,4.31
2022-11-30T05:29:03.823Z,4.31
2022-11-30T05:30:03.904Z,4.31
2022-11-30T05:31:03.994Z,4.31
2022-11-30T05:32:03.911Z,4.31
2022-11-30T05:33:03.747Z,4.31
2022-11-30T05:34:03.833Z,4.31
2022-11-30T05:35:03.656Z,4.31
2022-11-30T05:36:08.907Z,4.31
2022-11-30T05:37:03.500Z,4.31
2022-11-30T05:38:03.422Z,4.31
2022-11-30T05:39:03.422Z,4.31
2022-11-30T05:40:04.466Z,4.31
2022-11-30T05:41:04.376Z,4.31
2022-11-30T05:42:04.384Z,4.31
2022-11-30T05:43:04.380Z,4.25
2022-11-30T05:44:04.394Z,4.25
2022-11-30T05:45:04.316Z,4.25
2022-11-30T05:46:04.302Z,4.25
2022-11-30T05:47:04.467Z,4.25
2022-11-30T05:48:04.386Z,4.25
2022-11-30T05:49:04.381Z,4.25
2022-11-30T05:50:04.374Z,4.25
2022-11-30T05:51:04.391Z,4.25
2022-11-30T05:52:04.222Z,4.25
2022-11-30T05:53:04.228Z,4.25
2022-11-30T05:54:04.149Z,4.25
2022-11-30T05:55:04.088Z,4.25
2022-11-30T05:56:03.907Z,4.25
2022-11-30T05:57:03.911Z,4.25
2022-11-30T05:58:03.828Z,4.25
2022-11-30T05:59:03.747Z,4.25
2022-11-30T06:00:03.745Z,4.25
2022-11-30T06:01:03.669Z,4.25
2022-11-30T06:02:03.716Z,4.25
2022-11-30T06:03:03.669Z,4.25
2022-11-30T06:04:07.451Z,4.25
2022-11-30T06:05:04.296Z,4.25
2022-11-30T06:06:04.305Z,4.25
2022-11-30T06:07:04.220Z,4.19
2022-11-30T06:08:04.301Z,4.25
2022-11-30T06:09:04.226Z,4.19
2022-11-30T06:10:04.145Z,4.25
2022-11-30T06:11:04.147Z,4.19
2022-11-30T06:12:04.065Z,4.25
2022-11-30T06:13:03.898Z,4.19
2022-11-30T06:14:03.909Z,4.25
2022-11-30T06:15:03.744Z,4.25
2022-11-30T06:16:03.693Z,4.19
2022-11-30T06:17:03.668Z,4.19
2022-11-30T06:18:03.749Z,4.19
2022-11-30T06:19:03.589Z,4.19
2022-11-30T06:20:04.154Z,4.19
2022-11-30T06:21:03.982Z,4.19
2022-11-30T06:22:03.910Z,4.19
2022-11-30T06:23:03.827Z,4.19
2022-11-30T06:24:03.765Z,4.19
2022-11-30T06:25:03.592Z,4.19
2022-11-30T06:26:03.586Z,4.19
2022-11-30T06:27:03.511Z,4.19
2022-11-30T06:28:04.388Z,4.19
2022-11-30T06:29:04.303Z,4.19
2022-11-30T06:30:04.225Z,4.19
2022-11-30T06:31:04.312Z,4.19
2022-11-30T06:32:04.307Z,4.12
2022-11-30T06:33:04.063Z,4.19
2022-11-30T06:34:03.985Z,4.19
2022-11-30T06:35:03.989Z,4.19
2022-11-30T06:36:04.018Z,4.19
2022-11-30T06:37:03.917Z,4.19
2022-11-30T06:38:03.749Z,4.19
2022-11-30T06:39:03.906Z,4.12
2022-11-30T06:40:06.808Z,4.12
2022-11-30T06:41:03.747Z,4.19
2022-11-30T06:42:03.828Z,4.19
2022-11-30T06:43:03.749Z,4.12
2022-11-30T06:44:03.582Z,4.19
2022-11-30T06:45:03.520Z,4.19
2022-11-30T06:46:04.467Z,4.19
2022-11-30T06:47:04.394Z,4.12
2022-11-30T06:48:04.307Z,4.12
2022-11-30T06:49:04.221Z,4.12
2022-11-30T06:50:04.144Z,4.12
2022-11-30T06:51:04.227Z,4.12
2022-11-30T06:52:03.998Z,4.12
2022-11-30T06:53:03.985Z,4.12
2022-11-30T06:54:03.913Z,4.12
2022-11-30T06:55:03.829Z,4.12
2022-11-30T06:56:08.311Z,4.12
2022-11-30T06:57:03.750Z,4.12
2022-11-30T06:58:03.661Z,4.12
2022-11-30T06:59:03.507Z,4.12
2022-11-30T07:00:03.485Z,4.12
2022-11-30T07:01:03.614Z,4.12
2022-11-30T07:02:08.205Z,4.12
2022-11-30T07:03:04.385Z,4.12
2022-11-30T07:04:03.470Z,4.12
2022-11-30T07:05:04.392Z,4.12
2022-11-30T07:06:04.299Z,4.12
2022-11-30T07:07:04.237Z,4.12
2022-11-30T07:08:04.151Z,4.12
2022-11-30T07:09:04.140Z,4.12
2022-11-30T07:10:04.149Z,4.12
2022-11-30T07:11:04.077Z,4.12
2022-11-30T07:12:03.984Z,4.12
2022-11-30T07:13:03.985Z,4.19
2022-11-30T07:14:03.983Z,4.19
2022-11-30T07:15:03.908Z,4.19
2022-11-30T07:16:03.827Z,4.19
2022-11-30T07:17:03.910Z,4.19
2022-11-30T07:18:03.744Z,4.19
2022-11-30T07:19:03.667Z,4.19
2022-11-30T07:20:03.685Z,4.19
2022-11-30T07:21:03.605Z,4.19
2022-11-30T07:22:03.420Z,4.19
2022-11-30T07:23:03.671Z,4.19
2022-11-30T07:24:03.588Z,4.19
2022-11-30T07:25:03.510Z,4.19
2022-11-30T07:26:04.386Z,4.19
2022-11-30T07:27:04.389Z,4.19
2022-11-30T07:28:04.308Z,4.19
2022-11-30T07:29:04.312Z,4.19
2022-11-30T07:30:04.309Z,4.19
2022-11-30T07:31:04.219Z,4.19
2022-11-30T07:32:04.309Z,4.25
2022-11-30T07:33:04.151Z,4.25
2022-11-30T07:34:04.143Z,4.25
2022-11-30T07:35:04.315Z,4.25
2022-11-30T07:36:04.231Z,4.25
2022-11-30T07:37:04.060Z,4.19
2022-11-30T07:38:08.281Z,4.25
2022-11-30T07:39:03.909Z,4.25
2022-11-30T07:40:04.287Z,4.25
2022-11-30T07:41:03.748Z,4.25
2022-11-30T07:42:03.742Z,4.25
2022-11-30T07:43:03.664Z,4.25
2022-11-30T07:44:03.584Z,4.25
2022-11-30T07:45:03.588Z,4.25
2022-11-30T07:46:03.661Z,4.25
2022-11-30T07:47:03.507Z,4.31
2022-11-30T07:48:04.466Z,4.31
2022-11-30T07:49:04.311Z,4.31
2022-11-30T07:50:04.224Z,4.31
2022-11-30T07:51:04.149Z,4.31
2022-11-30T07:52:03.984Z,4.31
2022-11-30T07:53:03.911Z,4.31
2022-11-30T07:54:03.918Z,4.31
2022-11-30T07:55:03.838Z,4.31
2022-11-30T07:56:03.751Z,4.31
2022-11-30T07:57:03.581Z,4.31
2022-11-30T07:58:03.664Z,4.31
2022-11-30T07:59:03.583Z,4.38
2022-11-30T08:00:03.506Z,4.31
2022-11-30T08:01:04.437Z,4.31
2022-11-30T08:02:04.300Z,4.38
2022-11-30T08:03:04.334Z,4.38
2022-11-30T08:04:04.400Z,4.38
2022-11-30T08:05:04.422Z,4.38
2022-11-30T08:06:04.065Z,4.38
2022-11-30T08:07:04.059Z,4.38
2022-11-30T08:08:04.101Z,4.38
2022-11-30T08:09:04.087Z,4.38
2022-11-30T08:10:03.987Z,4.38
2022-11-30T08:11:03.840Z,4.44
2022-11-30T08:12:03.831Z,4.44
2022-11-30T08:13:03.829Z,4.44
2022-11-30T08:14:03.751Z,4.44
2022-11-30T08:15:20.552Z,4.44
2022-11-30T08:16:03.510Z,4.44
2022-11-30T08:17:03.554Z,4.50
2022-11-30T08:18:04.474Z,4.50
2022-11-30T08:19:04.394Z,4.50
2022-11-30T08:20:04.379Z,4.50
2022-11-30T08:21:04.304Z,4.50
2022-11-30T08:22:04.140Z,4.50
2022-11-30T08:23:04.064Z,4.50
2022-11-30T08:24:04.194Z,4.56
2022-11-30T08:25:03.992Z,4.56
2022-11-30T08:26:03.917Z,4.56
2022-11-30T08:27:03.837Z,4.56
2022-11-30T08:28:03.737Z,4.56
2022-11-30T08:29:03.747Z,4.56
2022-11-30T08:30:03.585Z,4.62
2022-11-30T08:31:03.717Z,4.62
2022-11-30T08:32:03.425Z,4.62
2022-11-30T08:33:04.483Z,4.62
2022-11-30T08:34:04.229Z,4.62
2022-11-30T08:35:04.219Z,4.62
2022-11-30T08:36:04.233Z,4.62
2022-11-30T08:37:04.149Z,4.62
2022-11-30T08:38:04.070Z,4.69
2022-11-30T08:39:03.990Z,4.69
2022-11-30T08:40:03.831Z,4.69
2022-11-30T08:41:03.739Z,4.69
2022-11-30T08:42:03.693Z,4.69
2022-11-30T08:43:03.668Z,4.69
2022-11-30T08:44:03.509Z,4.69
2022-11-30T08:45:03.779Z,4.75
2022-11-30T08:46:08.361Z,4.75
2022-11-30T08:47:04.494Z,4.75
2022-11-30T08:48:04.305Z,4.75
2022-11-30T08:49:20.792Z,4.75
2022-11-30T08:50:04.140Z,4.75
2022-11-30T08:51:04.069Z,4.75
2022-11-30T08:52:18.386Z,4.81
2022-11-30T08:53:06.461Z,4.81
2022-11-30T08:54:03.833Z,4.81
2022-11-30T08:55:03.664Z,4.81
2022-11-30T08:56:03.594Z,4.81
2022-11-30T08:57:03.502Z,4.81
2022-11-30T08:58:04.389Z,4.88
2022-11-30T08:59:04.391Z,4.88
2022-11-30T09:00:04.297Z,4.88
2022-11-30T09:01:04.395Z,4.88
2022-11-30T09:02:04.304Z,4.88
2022-11-30T09:03:04.354Z,4.88
2022-11-30T09:04:04.138Z,4.94
2022-11-30T09:05:04.077Z,4.94
2022-11-30T09:06:03.993Z,4.94
2022-11-30T09:07:03.989Z,4.94
2022-11-30T09:08:03.922Z,5.00
2022-11-30T09:09:03.833Z,5.00
2022-11-30T09:10:03.666Z,5.00
2022-11-30T09:11:03.590Z,5.00
2022-11-30T09:12:03.513Z,5.00
2022-11-30T09:13:04.389Z,5.00
2022-11-30T09:14:04.387Z,5.00
2022-11-30T09:15:04.312Z,5.06
2022-11-30T09:16:04.412Z,5.06
2022-11-30T09:17:04.378Z,5.06
2022-11-30T09:18:04.475Z,5.06
2022-11-30T09:19:04.403Z,5.12
2022-11-30T09:20:04.388Z,5.12
2022-11-30T09:21:04.304Z,5.12
2022-11-30T09:22:04.322Z,5.12
2022-11-30T09:23:04.229Z,5.12
2022-11-30T09:24:04.145Z,5.12
2022-11-30T09:25:04.071Z,5.19
2022-11-30T09:26:03.997Z,5.19
2022-11-30T09:27:03.999Z,5.19
2022-11-30T09:28:06.815Z,5.19
2022-11-30T09:29:03.745Z,5.19
2022-11-30T09:30:03.592Z,5.19
2022-11-30T09:31:03.632Z,5.19
2022-11-30T09:32:03.611Z,5.19
2022-11-30T09:33:03.522Z,5.19
2022-11-30T09:34:04.310Z,5.19
2022-11-30T09:35:06.626Z,5.25
2022-11-30T09:36:04.389Z,5.25
2022-11-30T09:37:04.399Z,5.25
2022-11-30T09:38:04.310Z,5.25
2022-11-30T09:39:04.303Z,5.25
2022-11-30T09:40:04.396Z,5.25
2022-11-30T09:41:04.235Z,5.25
2022-11-30T09:42:04.156Z,5.25
2022-11-30T09:43:04.070Z,5.25
2022-11-30T09:44:03.996Z,5.25
2022-11-30T09:45:03.913Z,5.25
2022-11-30T09:46:03.794Z,5.25
2022-11-30T09:47:03.585Z,5.31
2022-11-30T09:48:03.538Z,5.31
2022-11-30T09:49:04.467Z,5.31
2022-11-30T09:50:04.329Z,5.31
2022-11-30T09:51:04.235Z,5.31
2022-11-30T09:52:04.228Z,5.31
2022-11-30T09:53:04.141Z,5.31
2022-11-30T09:54:03.996Z,5.31
2022-11-30T09:55:03.905Z,5.31
2022-11-30T09:56:03.843Z,5.38
2022-11-30T09:57:03.831Z,5.38
2022-11-30T09:58:03.666Z,5.38
2022-11-30T09:59:03.758Z,5.38
2022-11-30T10:00:03.681Z,5.38
2022-11-30T10:01:06.812Z,5.38
2022-11-30T10:02:04.531Z,5.38
2022-11-30T10:03:04.542Z,5.38
2022-11-30T10:04:04.228Z,5.38
2022-11-30T10:05:04.223Z,5.44
2022-11-30T10:06:04.306Z,5.44
2022-11-30T10:07:04.249Z,5.50
2022-11-30T10:08:04.223Z,5.44
2022-11-30T10:09:04.155Z,5.44
2022-11-30T10:10:30.713Z,5.50
2022-11-30T10:11:04.067Z,5.50
2022-11-30T10:12:04.312Z,5.50
2022-11-30T10:13:03.904Z,5.50
2022-11-30T10:14:03.911Z,5.50
2022-11-30T10:15:03.825Z,5.50
2022-11-30T10:16:03.636Z,5.50
2022-11-30T10:17:03.596Z,5.50
2022-11-30T10:18:03.505Z,5.50
2022-11-30T10:19:03.500Z,5.50
2022-11-30T10:20:04.379Z,5.50
2022-11-30T10:21:03.586Z,5.56
2022-11-30T10:22:03.501Z,5.56
2022-11-30T10:23:03.517Z,5.56
2022-11-30T10:24:03.513Z,5.56
2022-11-30T10:25:08.681Z,5.56
2022-11-30T10:26:04.476Z,5.56
2022-11-30T10:27:04.311Z,5.56
2022-11-30T10:28:17.955Z,5.62
2022-11-30T10:29:04.223Z,5.62
2022-11-30T10:30:04.241Z,5.62
2022-11-30T10:31:04.204Z,5.62
2022-11-30T10:32:04.142Z,5.62
2022-11-30T10:33:04.031Z,5.62
2022-11-30T10:34:03.822Z,5.62
2022-11-30T10:35:03.748Z,5.62
2022-11-30T10:36:03.664Z,5.62
2022-11-30T10:37:03.661Z,5.62
2022-11-30T10:38:03.589Z,5.69
2022-11-30T10:39:03.593Z,5.69
2022-11-30T10:40:03.517Z,5.69
2022-11-30T10:41:04.394Z,5.69
2022-11-30T10:42:04.231Z,5.75
2022-11-30T10:43:04.229Z,5.75
2022-11-30T10:44:04.145Z,5.75
2022-11-30T10:45:04.151Z,5.75
2022-11-30T10:46:04.057Z,5.81
2022-11-30T10:47:04.230Z,5.81
2022-11-30T10:48:04.072Z,5.81
2022-11-30T10:49:03.990Z,5.81
2022-11-30T10:50:03.983Z,5.81
2022-11-30T10:51:03.904Z,5.81
2022-11-30T10:52:03.836Z,5.88
2022-11-30T10:53:03.749Z,5.88
2022-11-30T10:54:03.590Z,5.88
2022-11-30T10:55:05.026Z,5.94
2022-11-30T10:56:03.516Z,5.94
2022-11-30T10:57:04.310Z,5.94
2022-11-30T10:58:04.316Z,5.94
2022-11-30T10:59:04.173Z,5.94
2022-11-30T11:00:04.067Z,6.00
2022-11-30T11:01:04.140Z,6.00
2022-11-30T11:02:04.152Z,6.00
2022-11-30T11:03:04.007Z,6.00
2022-11-30T11:04:03.884Z,6.00
2022-11-30T11:05:03.762Z,6.00
2022-11-30T11:06:03.662Z,6.00
2022-11-30T11:07:03.756Z,6.06
2022-11-30T11:08:07.023Z,6.06
2022-11-30T11:09:03.591Z,6.06
2022-11-30T11:10:03.593Z,6.06
2022-11-30T11:11:03.501Z,6.06
2022-11-30T11:12:03.433Z,6.06
2022-11-30T11:13:04.301Z,6.06
2022-11-30T11:14:04.310Z,6.06
2022-11-30T11:15:04.235Z,6.12
2022-11-30T11:16:04.285Z,6.12
2022-11-30T11:17:04.063Z,6.12
2022-11-30T11:18:04.065Z,6.12
2022-11-30T11:19:04.073Z,6.12
2022-11-30T11:20:03.990Z,6.12
2022-11-30T11:21:06.055Z,6.12
2022-11-30T11:22:03.824Z,6.12
2022-11-30T11:23:03.845Z,6.19
2022-11-30T11:24:03.751Z,6.19
2022-11-30T11:25:03.768Z,6.19
2022-11-30T11:26:03.666Z,6.19
2022-11-30T11:27:03.589Z,6.25
2022-11-30T11:28:03.511Z,6.25
2022-11-30T11:29:04.394Z,6.25
2022-11-30T11:30:04.314Z,6.25
2022-11-30T11:31:04.368Z,6.25
2022-11-30T11:32:04.238Z,6.25
2022-11-30T11:33:04.063Z,6.31
2022-11-30T11:34:03.919Z,6.31
2022-11-30T11:35:03.913Z,6.31
2022-11-30T11:36:03.823Z,6.31
2022-11-30T11:37:03.749Z,6.31
2022-11-30T11:38:03.663Z,6.31
2022-11-30T11:39:03.631Z,6.31
2022-11-30T11:40:03.526Z,6.38
2022-11-30T11:41:03.500Z,6.38
2022-11-30T11:42:03.599Z,6.38
2022-11-30T11:43:03.424Z,6.38
2022-11-30T11:44:04.395Z,6.38
2022-11-30T11:45:04.314Z,6.38
2022-11-30T11:46:04.281Z,6.38
2022-11-30T11:47:04.150Z,6.38
2022-11-30T11:48:03.985Z,6.38
2022-11-30T11:49:03.830Z,6.44
2022-11-30T11:50:03.840Z,6.44
2022-11-30T11:51:07.984Z,6.44
2022-11-30T11:52:03.669Z,6.44
2022-11-30T11:53:03.508Z,6.44
2022-11-30T11:54:03.560Z,6.44
2022-11-30T11:55:03.598Z,6.50
2022-11-30T11:56:03.425Z,6.50
2022-11-30T11:57:04.389Z,6.50
2022-11-30T11:58:04.301Z,6.50
2022-11-30T11:59:04.311Z,6.50
2022-11-30T12:00:04.237Z,6.50
2022-11-30T12:01:31.349Z,6.56
2022-11-30T12:02:04.152Z,6.56
2022-11-30T12:03:04.188Z,6.56
2022-11-30T12:04:04.132Z,6.62
2022-11-30T12:05:03.997Z,6.62
2022-11-30T12:06:03.914Z,6.62
2022-11-30T12:07:03.826Z,6.62
2022-11-30T12:08:03.779Z,6.62
2022-11-30T12:09:03.668Z,6.62
2022-11-30T12:10:03.588Z,6.62
2022-11-30T12:11:03.427Z,6.69
2022-11-30T12:12:03.510Z,6.69
2022-11-30T12:13:03.514Z,6.69
2022-11-30T12:14:04.464Z,6.69
2022-11-30T12:15:04.393Z,6.69
2022-11-30T12:16:04.378Z,6.69
2022-11-30T12:17:04.236Z,6.69
2022-11-30T12:18:06.617Z,6.69
2022-11-30T12:19:03.985Z,6.75
2022-11-30T12:20:03.840Z,6.75
2022-11-30T12:21:03.864Z,6.75
2022-11-30T12:22:03.750Z,6.81
2022-11-30T12:23:03.665Z,6.81
2022-11-30T12:24:03.692Z,6.88
2022-11-30T12:25:06.044Z,6.88
2022-11-30T12:26:03.507Z,6.88
2022-11-30T12:27:03.502Z,6.88
2022-11-30T12:28:03.594Z,6.94
2022-11-30T12:29:03.436Z,6.94
2022-11-30T12:30:04.318Z,6.94
2022-11-30T12:31:04.316Z,6.94
2022-11-30T12:32:04.306Z,6.94
2022-11-30T12:33:04.140Z,6.94
2022-11-30T12:34:04.188Z,6.94
2022-11-30T12:35:04.231Z,6.88
2022-11-30T12:36:04.058Z,6.88
2022-11-30T12:37:04.146Z,6.88
2022-11-30T12:38:04.082Z,6.88
2022-11-30T12:39:03.915Z,6.88
2022-11-30T12:40:03.910Z,6.88
2022-11-30T12:41:03.828Z,6.88
2022-11-30T12:42:03.662Z,6.81
2022-11-30T12:43:03.593Z,6.81
2022-11-30T12:44:03.595Z,6.81
2022-11-30T12:45:03.659Z,6.88
2022-11-30T12:46:03.733Z,6.81
2022-11-30T12:47:03.509Z,6.88
2022-11-30T12:48:04.388Z,6.81
2022-11-30T12:49:03.466Z,6.88
2022-11-30T12:50:04.396Z,6.88
2022-11-30T12:51:04.386Z,6.88
2022-11-30T12:52:04.392Z,6.88
2022-11-30T12:53:04.315Z,6.88
2022-11-30T12:54:04.152Z,6.94
2022-11-30T12:55:04.147Z,6.94
2022-11-30T12:56:04.067Z,6.94
2022-11-30T12:57:03.989Z,6.94
2022-11-30T12:58:03.988Z,6.88
2022-11-30T12:59:04.075Z,6.88
2022-11-30T13:00:04.081Z,6.88
2022-11-30T13:01:04.040Z,6.94
2022-11-30T13:02:03.939Z,6.94
2022-11-30T13:03:03.830Z,6.94
2022-11-30T13:04:03.826Z,6.88
2022-11-30T13:05:03.849Z,6.88
2022-11-30T13:06:03.823Z,6.88
2022-11-30T13:07:03.781Z,6.88
2022-11-30T13:08:03.785Z,6.88
2022-11-30T13:09:03.593Z,6.88
2022-11-30T13:10:03.518Z,6.88
2022-11-30T13:11:04.385Z,6.88
2022-11-30T13:12:04.300Z,6.88
2022-11-30T13:13:04.220Z,6.88
2022-11-30T13:14:04.252Z,6.88
2022-11-30T13:15:04.144Z,6.88
2022-11-30T13:16:04.178Z,6.88
2022-11-30T13:17:04.248Z,6.88
2022-11-30T13:18:04.154Z,6.88